createdAt,value
2023-02-02T00:01:57.153Z,102103.53
2023-02-02T00:04:26.450Z,102106.84
2023-02-02T00:06:54.777Z,102109.09
2023-02-02T00:09:22.482Z,102103.19
2023-02-02T00:11:51.358Z,102109.88
2023-02-02T00:14:20.483Z,102112.66
2023-02-02T00:16:49.686Z,102112.84
2023-02-02T00:19:19.312Z,102109.09
2023-02-02T00:21:47.424Z,102111.56
2023-02-02T00:24:17.984Z,102113.81
2023-02-02T00:26:47.635Z,102104.91
2023-02-02T00:29:19.117Z,102110.16
2023-02-02T00:31:48.615Z,102120.06
2023-02-02T00:34:17.299Z,102114.75
2023-02-02T00:36:45.756Z,102127.34
2023-02-02T00:39:18.510Z,102120.19
2023-02-02T00:41:46.782Z,102116.13
2023-02-02T00:44:32.363Z,102123.56
2023-02-02T00:47:01.489Z,102117.88
2023-02-02T00:49:29.201Z,102120.19
2023-02-02T00:51:56.974Z,102118.16
2023-02-02T00:54:24.677Z,102116.94
2023-02-02T00:56:52.423Z,102114.22
2023-02-02T00:59:20.181Z,102121.91
2023-02-02T01:01:48.420Z,102121.72
2023-02-02T01:04:17.569Z,102123.56
2023-02-02T01:06:45.310Z,102113.59
2023-02-02T01:09:13.062Z,102115.94
2023-02-02T01:11:40.828Z,102097.91
2023-02-02T01:14:08.674Z,102115.94
2023-02-02T01:16:36.469Z,102118.47
2023-02-02T01:19:04.282Z,102116.94
2023-02-02T01:21:33.602Z,102120.31
2023-02-02T01:24:01.367Z,102122.72
2023-02-02T01:26:29.076Z,102118.44
2023-02-02T01:28:56.829Z,102113.59
2023-02-02T01:31:24.939Z,102116.31
2023-02-02T01:33:53.238Z,102112.25
2023-02-02T01:36:22.784Z,102114.75
2023-02-02T01:38:52.419Z,102118.25
2023-02-02T01:41:23.229Z,102117.09
2023-02-02T01:43:57.476Z,102125.91
2023-02-02T01:46:27.881Z,102108.81
2023-02-02T01:49:02.496Z,102115.75
2023-02-02T01:51:36.034Z,102126.84
2023-02-02T01:54:09.962Z,102118.06
2023-02-02T01:56:42.618Z,102118.44
2023-02-02T01:59:13.903Z,102117.47
2023-02-02T02:01:42.615Z,102124.03
2023-02-02T02:04:10.526Z,102125.00
2023-02-02T02:06:39.165Z,102130.19
2023-02-02T02:09:08.967Z,102120.38
2023-02-02T02:11:37.203Z,102121.03
2023-02-02T02:14:25.356Z,102123.84
2023-02-02T02:17:10.374Z,102118.31
2023-02-02T02:20:27.677Z,102120.75
2023-02-02T02:23:44.431Z,102138.03
2023-02-02T02:26:44.329Z,102122.03
2023-02-02T02:29:30.966Z,102132.53
2023-02-02T02:32:20.389Z,102120.50
2023-02-02T02:34:56.228Z,102126.38
2023-02-02T02:37:33.219Z,102120.00
2023-02-02T02:40:06.378Z,102122.41
2023-02-02T02:42:39.437Z,102123.56
2023-02-02T02:45:11.191Z,102119.63
2023-02-02T02:47:41.216Z,102122.50
2023-02-02T02:50:10.277Z,102127.13
2023-02-02T02:52:39.140Z,102120.38
2023-02-02T02:55:09.518Z,102118.06
2023-02-02T02:58:00.219Z,102118.00
2023-02-02T03:00:57.544Z,102119.00
2023-02-02T03:03:37.307Z,102103.78
2023-02-02T03:06:13.582Z,102108.13
2023-02-02T03:08:44.900Z,102107.34
2023-02-02T03:11:14.003Z,102115.56
2023-02-02T03:13:42.840Z,102118.94
2023-02-02T03:16:11.438Z,102112.38
2023-02-02T03:18:40.738Z,102112.47
2023-02-02T03:21:08.474Z,102117.38
2023-02-02T03:23:36.322Z,102116.41
2023-02-02T03:26:04.467Z,102138.94
2023-02-02T03:28:33.465Z,102139.91
2023-02-02T03:31:02.593Z,102139.97
2023-02-02T03:33:31.765Z,102140.47
2023-02-02T03:36:00.868Z,102137.78
2023-02-02T03:38:28.628Z,102146.00
2023-02-02T03:40:56.399Z,102143.28
2023-02-02T03:43:25.189Z,102148.50
2023-02-02T03:45:57.776Z,102142.22
2023-02-02T03:48:25.737Z,102144.34
2023-02-02T03:50:53.779Z,102148.97
2023-02-02T03:53:23.265Z,102153.78
2023-02-02T03:55:50.979Z,102147.22
2023-02-02T03:58:22.125Z,102148.97
2023-02-02T04:00:50.022Z,102155.91
2023-02-02T04:03:17.847Z,102138.56
2023-02-02T04:05:45.578Z,102163.06
2023-02-02T04:08:13.311Z,102160.56
2023-02-02T04:10:43.548Z,102159.41
2023-02-02T04:13:11.297Z,102167.31
2023-02-02T04:15:39.094Z,102145.69
2023-02-02T04:18:06.999Z,102145.31
2023-02-02T04:20:34.779Z,102141.03
2023-02-02T04:23:02.567Z,102141.13
2023-02-02T04:25:30.429Z,102146.53
2023-02-02T04:27:59.646Z,102148.28
2023-02-02T04:30:27.381Z,102157.06
2023-02-02T04:32:56.039Z,102154.97
2023-02-02T04:35:24.179Z,102156.13
2023-02-02T04:37:52.123Z,102154.28
2023-02-02T04:40:20.764Z,102153.16
2023-02-02T04:42:48.507Z,102160.63
2023-02-02T04:45:17.730Z,102157.88
2023-02-02T04:47:45.558Z,102164.91
2023-02-02T04:50:13.313Z,102162.38
2023-02-02T04:52:41.134Z,102163.34
2023-02-02T04:55:09.913Z,102157.06
2023-02-02T04:57:37.590Z,102163.19
2023-02-02T05:00:06.184Z,102145.47
2023-02-02T05:02:38.028Z,102153.47
2023-02-02T05:05:07.412Z,102168.47
2023-02-02T05:07:35.144Z,102171.28
2023-02-02T05:10:03.549Z,102167.19
2023-02-02T05:12:31.721Z,102175.22
2023-02-02T05:15:01.004Z,102166.34
2023-02-02T05:17:29.083Z,102166.16
2023-02-02T05:19:58.541Z,102170.00
2023-02-02T05:22:26.956Z,102159.78
2023-02-02T05:24:55.017Z,102165.19
2023-02-02T05:27:22.714Z,102166.94
2023-02-02T05:29:50.409Z,102174.09
2023-02-02T05:32:18.368Z,102166.72
2023-02-02T05:34:46.111Z,102173.56
2023-02-02T05:37:15.236Z,102156.81
2023-02-02T05:39:43.080Z,102166.72
2023-02-02T05:42:10.823Z,102183.84
2023-02-02T05:44:38.626Z,102173.47
2023-02-02T05:47:06.624Z,102186.41
2023-02-02T05:49:34.345Z,102184.75
2023-02-02T05:52:02.224Z,102189.38
2023-02-02T05:54:31.407Z,102176.16
2023-02-02T05:57:01.199Z,102166.25
2023-02-02T05:59:29.260Z,102174.72
2023-02-02T06:01:57.054Z,102187.09
2023-02-02T06:04:24.826Z,102178.97
2023-02-02T06:06:52.734Z,102178.88
2023-02-02T06:09:20.481Z,102173.47
2023-02-02T06:11:49.581Z,102187.88
2023-02-02T06:14:17.332Z,102197.44
2023-02-02T06:16:45.040Z,102194.16
2023-02-02T06:19:12.765Z,102199.56
2023-02-02T06:21:40.671Z,102197.13
2023-02-02T06:24:08.837Z,102209.69
2023-02-02T06:26:36.643Z,102212.13
2023-02-02T06:29:06.874Z,102204.97
2023-02-02T06:31:34.896Z,102213.88
2023-02-02T06:34:02.761Z,102216.56
2023-02-02T06:36:30.776Z,102211.16
2023-02-02T06:38:58.739Z,102210.47
2023-02-02T06:41:26.590Z,102225.53
2023-02-02T06:43:54.377Z,102230.94
2023-02-02T06:46:23.652Z,102232.44
2023-02-02T06:48:51.420Z,102236.47
2023-02-02T06:51:19.234Z,102239.25
2023-02-02T06:53:48.853Z,102240.13
2023-02-02T06:56:17.660Z,102238.47
2023-02-02T06:58:45.702Z,102234.00
2023-02-02T07:01:14.941Z,102230.91
2023-02-02T07:03:44.325Z,102226.72
2023-02-02T07:06:17.504Z,102221.91
2023-02-02T07:08:45.365Z,102222.34
2023-02-02T07:11:19.405Z,102222.78
2023-02-02T07:13:49.076Z,102220.16
2023-02-02T07:16:18.850Z,102229.06
2023-02-02T07:18:49.450Z,102232.72
2023-02-02T07:21:19.544Z,102238.47
2023-02-02T07:23:48.871Z,102235.63
2023-02-02T07:26:18.197Z,102243.72
2023-02-02T07:28:46.905Z,102234.47
2023-02-02T07:31:17.365Z,102244.31
2023-02-02T07:33:48.062Z,102254.34
2023-02-02T07:36:17.818Z,102248.59
2023-02-02T07:38:46.920Z,102248.69
2023-02-02T07:41:15.764Z,102246.13
2023-02-02T07:43:43.842Z,102258.81
2023-02-02T07:46:14.347Z,102256.44
2023-02-02T07:48:42.154Z,102270.66
2023-02-02T07:51:13.797Z,102278.09
2023-02-02T07:53:47.582Z,102280.44
2023-02-02T07:56:16.046Z,102284.97
2023-02-02T07:58:44.594Z,102285.94
2023-02-02T08:01:14.413Z,102278.19
2023-02-02T08:03:43.381Z,102289.25
2023-02-02T08:06:15.326Z,102293.41
2023-02-02T08:08:43.134Z,102285.50
2023-02-02T08:11:13.629Z,102292.56
2023-02-02T08:13:42.136Z,102297.34
2023-02-02T08:16:10.961Z,102293.00
2023-02-02T08:18:39.535Z,102285.75
2023-02-02T08:21:09.455Z,102293.84
2023-02-02T08:23:39.753Z,102288.63
2023-02-02T08:26:09.575Z,102293.59
2023-02-02T08:28:37.791Z,102298.06
2023-02-02T08:31:07.312Z,102306.41
2023-02-02T08:33:35.435Z,102319.06
2023-02-02T08:36:03.579Z,102316.09
2023-02-02T08:38:31.435Z,102320.13
2023-02-02T08:41:07.328Z,102308.97
2023-02-02T08:43:35.727Z,102315.31
2023-02-02T08:46:05.509Z,102320.63
2023-02-02T08:48:33.698Z,102332.41
2023-02-02T08:51:02.108Z,102325.00
2023-02-02T08:53:30.762Z,102337.38
2023-02-02T08:56:02.388Z,102355.00
2023-02-02T08:58:32.278Z,102353.78
2023-02-02T09:01:06.830Z,102355.00
2023-02-02T09:03:34.960Z,102344.19
2023-02-02T09:06:06.622Z,102350.63
2023-02-02T09:08:34.662Z,102350.03
2023-02-02T09:11:07.383Z,102347.88
2023-02-02T09:13:38.116Z,102353.44
2023-02-02T09:16:09.529Z,102359.03
2023-02-02T09:18:37.405Z,102359.03
2023-02-02T09:21:07.713Z,102367.56
2023-02-02T09:23:37.117Z,102361.75
2023-02-02T09:26:12.412Z,102367.22
2023-02-02T09:28:42.622Z,102377.63
2023-02-02T09:31:10.582Z,102376.97
2023-02-02T09:33:39.080Z,102373.88
2023-02-02T09:36:08.536Z,102382.41
2023-02-02T09:38:37.022Z,102383.63
2023-02-02T09:41:24.152Z,102386.25
2023-02-02T09:44:02.946Z,102390.34
2023-02-02T09:46:39.563Z,102382.50
2023-02-02T09:49:12.062Z,102391.06
2023-02-02T09:51:42.918Z,102391.56
2023-02-02T09:54:17.141Z,102385.28
2023-02-02T09:56:50.849Z,102379.78
2023-02-02T09:59:24.514Z,102374.56
2023-02-02T10:01:55.484Z,102378.66
2023-02-02T10:04:28.303Z,102369.09
2023-02-02T10:06:59.264Z,102375.13
2023-02-02T10:09:39.421Z,102371.88
2023-02-02T10:12:19.895Z,102381.56
2023-02-02T10:14:55.231Z,102387.56
2023-02-02T10:17:44.517Z,102389.47
2023-02-02T10:20:27.090Z,102396.38
2023-02-02T10:22:59.015Z,102410.97
2023-02-02T10:25:28.791Z,102406.78
2023-02-02T10:28:05.121Z,102405.13
2023-02-02T10:30:43.487Z,102418.06
2023-02-02T10:33:21.482Z,102413.84
2023-02-02T10:35:57.956Z,102421.72
2023-02-02T10:38:36.720Z,102411.66
2023-02-02T10:41:16.346Z,102416.19
2023-02-02T10:44:01.221Z,102421.59
2023-02-02T10:46:34.990Z,102426.38
2023-02-02T10:49:14.067Z,102417.22
2023-02-02T10:51:42.381Z,102426.59
2023-02-02T10:54:27.817Z,102426.31
2023-02-02T10:56:59.727Z,102428.03
2023-02-02T10:59:33.457Z,102423.31
2023-02-02T11:02:18.892Z,102419.56
2023-02-02T11:05:05.746Z,102411.88
2023-02-02T11:07:33.544Z,102414.88
2023-02-02T11:10:01.284Z,102419.69
2023-02-02T11:12:34.118Z,102418.63
2023-02-02T11:15:05.271Z,102419.81
2023-02-02T11:17:36.417Z,102417.59
2023-02-02T11:20:24.576Z,102426.03
2023-02-02T11:23:02.675Z,102431.84
2023-02-02T11:25:34.136Z,102429.22
2023-02-02T11:28:11.841Z,102432.03
2023-02-02T11:30:40.010Z,102427.69
2023-02-02T11:33:22.918Z,102422.75
2023-02-02T11:35:55.489Z,102421.69
2023-02-02T11:38:23.267Z,102423.91
2023-02-02T11:40:56.552Z,102424.09
2023-02-02T11:43:29.145Z,102408.41
2023-02-02T11:46:02.822Z,102418.97
2023-02-02T11:48:35.811Z,102416.78
2023-02-02T11:51:04.828Z,102422.00
2023-02-02T11:53:34.672Z,102417.25
2023-02-02T11:56:05.797Z,102411.16
2023-02-02T11:58:45.427Z,102411.16
2023-02-02T12:01:25.552Z,102416.56
2023-02-02T12:03:56.787Z,102413.75
2023-02-02T12:06:26.466Z,102410.28
2023-02-02T12:08:58.102Z,102408.66
2023-02-02T12:11:42.385Z,102409.19
2023-02-02T12:14:26.886Z,102411.22
2023-02-02T12:17:05.240Z,102409.38
2023-02-02T12:19:58.496Z,102408.63
2023-02-02T12:22:41.270Z,102415.47
2023-02-02T12:25:31.979Z,102414.50
2023-02-02T12:28:06.269Z,102416.44
2023-02-02T12:30:43.367Z,102413.91
2023-02-02T12:33:24.902Z,102416.50
2023-02-02T12:36:08.544Z,102418.00
2023-02-02T12:39:02.365Z,102413.53
2023-02-02T12:41:42.373Z,102410.94
2023-02-02T12:44:20.886Z,102407.72
2023-02-02T12:47:01.422Z,102419.53
2023-02-02T12:49:55.239Z,102417.41
2023-02-02T12:52:40.778Z,102409.75
2023-02-02T12:55:30.946Z,102415.34
2023-02-02T12:58:09.206Z,102404.59
2023-02-02T13:00:53.219Z,102405.72
2023-02-02T13:03:40.073Z,102407.47
2023-02-02T13:06:27.377Z,102398.38
2023-02-02T13:09:03.074Z,102401.28
2023-02-02T13:11:39.058Z,102394.03
2023-02-02T13:14:12.352Z,102389.78
2023-02-02T13:16:44.332Z,102386.38
2023-02-02T13:19:19.139Z,102389.16
2023-02-02T13:21:49.066Z,102398.16
2023-02-02T13:24:27.379Z,102387.34
2023-02-02T13:26:58.388Z,102393.88
2023-02-02T13:29:34.921Z,102395.72
2023-02-02T13:32:22.716Z,102387.00
2023-02-02T13:34:56.515Z,102392.56
2023-02-02T13:37:27.310Z,102394.44
2023-02-02T13:40:00.340Z,102396.34
2023-02-02T13:42:38.142Z,102388.69
2023-02-02T13:45:24.631Z,102395.66
2023-02-02T13:48:00.273Z,102394.59
2023-02-02T13:50:30.512Z,102398.44
2023-02-02T13:53:26.033Z,102403.75
2023-02-02T13:56:15.513Z,102398.91
2023-02-02T13:58:56.473Z,102396.47
2023-02-02T14:01:26.428Z,102397.41
2023-02-02T14:03:57.315Z,102392.19
2023-02-02T14:06:26.738Z,102398.38
2023-02-02T14:08:57.548Z,102396.97
2023-02-02T14:11:32.541Z,102403.53
2023-02-02T14:14:27.161Z,102404.94
2023-02-02T14:16:56.602Z,102408.06
2023-02-02T14:19:50.322Z,102403.53
2023-02-02T14:22:20.715Z,102413.50
2023-02-02T14:24:51.191Z,102411.44
2023-02-02T14:27:55.883Z,102410.34
2023-02-02T14:30:28.523Z,102415.91
2023-02-02T14:33:25.004Z,102421.66
2023-02-02T14:36:02.120Z,102414.69
2023-02-02T14:39:12.018Z,102425.78
2023-02-02T14:42:24.950Z,102424.91
2023-02-02T14:45:31.353Z,102423.66
2023-02-02T14:48:02.374Z,102435.28
2023-02-02T14:50:42.793Z,102437.75
2023-02-02T14:53:21.192Z,102434.00
2023-02-02T14:55:56.847Z,102434.00
2023-02-02T14:58:28.968Z,102435.66
2023-02-02T15:01:06.028Z,102430.13
2023-02-02T15:03:47.202Z,102441.84
2023-02-02T15:06:27.537Z,102433.63
2023-02-02T15:09:43.998Z,102421.25
2023-02-02T15:12:37.096Z,102444.25
2023-02-02T15:15:19.539Z,102440.34
2023-02-02T15:18:01.660Z,102444.38
2023-02-02T15:20:34.120Z,102439.50
2023-02-02T15:23:06.733Z,102432.16
2023-02-02T15:25:41.765Z,102433.91
2023-02-02T15:28:19.163Z,102434.69
2023-02-02T15:30:52.453Z,102428.31
2023-02-02T15:33:29.654Z,102431.72
2023-02-02T15:36:00.484Z,102435.19
2023-02-02T15:38:35.410Z,102430.59
2023-02-02T15:41:08.882Z,102432.50
2023-02-02T15:43:36.788Z,102437.66
2023-02-02T15:46:07.632Z,102433.03
2023-02-02T15:48:36.933Z,102438.34
2023-02-02T15:51:06.700Z,102442.91
2023-02-02T15:53:46.987Z,102443.66
2023-02-02T15:56:29.298Z,102439.16
2023-02-02T15:58:59.425Z,102444.56
2023-02-02T16:01:31.421Z,102446.22
2023-02-02T16:04:14.667Z,102441.75
2023-02-02T16:06:43.119Z,102446.38
2023-02-02T16:09:20.226Z,102459.13
2023-02-02T16:11:49.959Z,102453.72
2023-02-02T16:14:18.675Z,102457.13
2023-02-02T16:16:49.456Z,102467.63
2023-02-02T16:19:21.943Z,102472.69
2023-02-02T16:21:54.767Z,102470.03
2023-02-02T16:24:25.892Z,102477.38
2023-02-02T16:26:56.882Z,102466.72
2023-02-02T16:29:28.032Z,102474.59
2023-02-02T16:31:58.336Z,102477.63
2023-02-02T16:34:46.792Z,102475.44
2023-02-02T16:37:17.288Z,102472.13
2023-02-02T16:39:45.728Z,102476.34
2023-02-02T16:42:25.221Z,102476.09
2023-02-02T16:44:53.701Z,102481.41
2023-02-02T16:47:39.738Z,102484.81
2023-02-02T16:50:28.508Z,102492.03
2023-02-02T16:52:59.118Z,102490.22
2023-02-02T16:55:39.900Z,102493.63
2023-02-02T16:58:20.585Z,102488.22
2023-02-02T17:01:12.681Z,102490.91
2023-02-02T17:03:51.002Z,102489.97
2023-02-02T17:06:38.340Z,102493.53
2023-02-02T17:09:18.288Z,102493.63
2023-02-02T17:12:01.991Z,102500.94
2023-02-02T17:14:33.119Z,102489.25
2023-02-02T17:17:01.252Z,102494.69
2023-02-02T17:19:30.529Z,102496.50
2023-02-02T17:22:05.208Z,102492.94
2023-02-02T17:24:33.658Z,102492.94
2023-02-02T17:27:02.310Z,102489.25
2023-02-02T17:29:30.391Z,102500.09
2023-02-02T17:31:58.295Z,102502.16
2023-02-02T17:34:26.219Z,102497.63
2023-02-02T17:36:55.213Z,102514.84
2023-02-02T17:39:24.319Z,102510.47
2023-02-02T17:41:52.516Z,102520.41
2023-02-02T17:44:20.189Z,102504.09
2023-02-02T17:46:47.986Z,102514.94
2023-02-02T17:49:15.722Z,102513.28
2023-02-02T17:51:43.753Z,102515.00
2023-02-02T17:54:13.354Z,102499.75
2023-02-02T17:56:43.056Z,102512.47
2023-02-02T17:59:12.266Z,102513.44
2023-02-02T18:01:41.857Z,102517.09
2023-02-02T18:04:13.232Z,102505.50
2023-02-02T18:06:41.116Z,102507.56
2023-02-02T18:09:10.378Z,102496.75
2023-02-02T18:11:38.463Z,102497.88
2023-02-02T18:14:07.617Z,102508.78
2023-02-02T18:16:35.373Z,102504.34
2023-02-02T18:19:04.496Z,102506.09
2023-02-02T18:21:32.642Z,102505.13
2023-02-02T18:24:00.384Z,102504.25
2023-02-02T18:26:28.435Z,102497.19
2023-02-02T18:28:56.211Z,102500.84
2023-02-02T18:31:25.449Z,102496.47
2023-02-02T18:33:54.406Z,102492.81
2023-02-02T18:36:23.639Z,102493.66
2023-02-02T18:38:53.788Z,102499.97
2023-02-02T18:41:22.112Z,102505.47
2023-02-02T18:43:52.835Z,102498.31
2023-02-02T18:46:20.756Z,102501.97
2023-02-02T18:48:49.974Z,102493.06
2023-02-02T18:51:19.430Z,102494.09
2023-02-02T18:53:48.980Z,102495.06
2023-02-02T18:56:17.319Z,102488.88
2023-02-02T18:58:45.203Z,102491.66
2023-02-02T19:01:15.333Z,102492.53
2023-02-02T19:03:43.940Z,102491.59
2023-02-02T19:06:30.601Z,102493.41
2023-02-02T19:08:58.409Z,102502.47
2023-02-02T19:11:29.548Z,102499.75
2023-02-02T19:13:57.526Z,102490.78
2023-02-02T19:16:27.883Z,102487.13
2023-02-02T19:18:57.772Z,102484.56
2023-02-02T19:21:30.595Z,102478.31
2023-02-02T19:24:00.456Z,102478.13
2023-02-02T19:26:30.379Z,102478.22
2023-02-02T19:29:13.087Z,102472.00
2023-02-02T19:31:41.128Z,102480.06
2023-02-02T19:34:13.411Z,102482.66
2023-02-02T19:36:46.764Z,102488.00
2023-02-02T19:39:17.976Z,102483.72
2023-02-02T19:41:45.781Z,102491.97
2023-02-02T19:44:18.491Z,102501.84
2023-02-02T19:46:49.458Z,102484.06
2023-02-02T19:49:23.767Z,102493.03
2023-02-02T19:51:55.677Z,102493.97
2023-02-02T19:54:28.130Z,102498.44
2023-02-02T19:56:59.195Z,102487.53
2023-02-02T19:59:31.538Z,102481.34
2023-02-02T20:02:09.291Z,102489.38
2023-02-02T20:04:38.145Z,102491.13
2023-02-02T20:07:13.429Z,102494.59
2023-02-02T20:09:41.271Z,102498.09
2023-02-02T20:12:22.495Z,102498.09
2023-02-02T20:14:50.309Z,102501.50
2023-02-02T20:17:27.286Z,102502.41
2023-02-02T20:19:55.162Z,102508.59
2023-02-02T20:22:32.054Z,102505.72
2023-02-02T20:25:04.993Z,102510.25
2023-02-02T20:27:34.927Z,102518.31
2023-02-02T20:30:19.937Z,102513.59
2023-02-02T20:32:50.770Z,102512.59
2023-02-02T20:35:25.911Z,102510.78
2023-02-02T20:37:55.833Z,102511.56
2023-02-02T20:40:25.535Z,102514.22
2023-02-02T20:42:53.486Z,102512.38
2023-02-02T20:45:22.618Z,102517.69
2023-02-02T20:47:50.861Z,102519.53
2023-02-02T20:50:20.619Z,102517.69
2023-02-02T20:52:48.511Z,102522.06
2023-02-02T20:55:18.034Z,102520.13
2023-02-02T20:57:45.866Z,102518.38
2023-02-02T21:00:16.669Z,102527.31
2023-02-02T21:02:48.528Z,102519.09
2023-02-02T21:05:16.486Z,102527.31
2023-02-02T21:07:44.311Z,102532.56
2023-02-02T21:10:15.113Z,102529.75
2023-02-02T21:12:44.204Z,102526.16
2023-02-02T21:15:12.386Z,102530.09
2023-02-02T21:17:40.576Z,102534.28
2023-02-02T21:20:10.081Z,102527.75
2023-02-02T21:22:37.895Z,102521.38
2023-02-02T21:25:08.386Z,102515.00
2023-02-02T21:27:37.703Z,102526.63
2023-02-02T21:30:08.318Z,102518.59
2023-02-02T21:32:36.129Z,102523.13
2023-02-02T21:35:04.110Z,102518.34
2023-02-02T21:37:35.511Z,102520.84
2023-02-02T21:40:08.105Z,102515.53
2023-02-02T21:42:37.329Z,102517.09
2023-02-02T21:45:33.319Z,102521.66
2023-02-02T21:48:03.483Z,102524.25
2023-02-02T21:50:35.069Z,102538.59
2023-02-02T21:53:20.187Z,102545.75
2023-02-02T21:55:53.437Z,102525.06
2023-02-02T21:58:24.909Z,102520.34
2023-02-02T22:00:55.321Z,102517.75
2023-02-02T22:03:35.421Z,102520.50
2023-02-02T22:06:19.964Z,102515.97
2023-02-02T22:08:48.632Z,102511.44
2023-02-02T22:11:29.204Z,102518.59
2023-02-02T22:14:02.244Z,102512.31
2023-02-02T22:16:39.680Z,102518.59
2023-02-02T22:19:24.784Z,102498.84
2023-02-02T22:21:53.936Z,102506.13
2023-02-02T22:24:21.883Z,102494.41
2023-02-02T22:26:50.008Z,102482.44
2023-02-02T22:29:21.144Z,102492.31
2023-02-02T22:31:50.328Z,102484.97
2023-02-02T22:34:18.173Z,102486.81
2023-02-02T22:36:45.922Z,102483.31
2023-02-02T22:39:13.665Z,102488.72
2023-02-02T22:41:41.438Z,102488.47
2023-02-02T22:44:09.237Z,102482.19
2023-02-02T22:46:37.109Z,102483.91
2023-02-02T22:49:06.237Z,102479.38
2023-02-02T22:51:34.003Z,102460.53
2023-02-02T22:54:01.724Z,102458.78
2023-02-02T22:56:29.453Z,102464.19
2023-02-02T22:58:57.192Z,102446.91
2023-02-02T23:01:24.924Z,102423.50
2023-02-02T23:03:52.693Z,102427.25
2023-02-02T23:06:21.816Z,102416.59
2023-02-02T23:08:49.552Z,102396.78
2023-02-02T23:11:17.313Z,102395.91
2023-02-02T23:13:45.083Z,102399.47
2023-02-02T23:16:13.067Z,102406.06
2023-02-02T23:18:40.855Z,102414.22
2023-02-02T23:21:08.556Z,102423.31
2023-02-02T23:23:37.682Z,102427.38
2023-02-02T23:26:05.503Z,102430.22
2023-02-02T23:28:33.233Z,102431.09
2023-02-02T23:31:02.177Z,102428.47
2023-02-02T23:33:30.029Z,102431.78
2023-02-02T23:35:57.830Z,102436.44
2023-02-02T23:38:25.539Z,102434.69
2023-02-02T23:40:54.663Z,102449.06
2023-02-02T23:43:22.405Z,102442.81
2023-02-02T23:45:50.251Z,102445.50
2023-02-02T23:48:18.501Z,102439.31
2023-02-02T23:50:47.188Z,102446.38
2023-02-02T23:53:15.834Z,102452.84
2023-02-02T23:55:45.629Z,102464.38
2023-02-02T23:58:15.534Z,102474.22
